sensor_id;sensor_type;location;lat;lon;timestamp;temperature;humidity
6865;DHT22;3471;49.678;8.388;2022-08-11T00:00:14;22.30;76.30
6865;DHT22;3471;49.678;8.388;2022-08-11T00:02:44;22.40;77.90
6865;DHT22;3471;49.678;8.388;2022-08-11T00:05:13;22.40;76.20
6865;DHT22;3471;49.678;8.388;2022-08-11T00:07:44;22.40;78.20
6865;DHT22;3471;49.678;8.388;2022-08-11T00:10:16;22.40;75.90
6865;DHT22;3471;49.678;8.388;2022-08-11T00:12:43;22.40;75.80
6865;DHT22;3471;49.678;8.388;2022-08-11T00:15:14;22.40;76.20
6865;DHT22;3471;49.678;8.388;2022-08-11T00:17:40;22.40;76.10
6865;DHT22;3471;49.678;8.388;2022-08-11T00:20:10;22.40;75.00
6865;DHT22;3471;49.678;8.388;2022-08-11T00:22:38;22.40;74.90
6865;DHT22;3471;49.678;8.388;2022-08-11T00:25:14;22.30;74.60
6865;DHT22;3471;49.678;8.388;2022-08-11T00:27:41;22.20;74.10
6865;DHT22;3471;49.678;8.388;2022-08-11T00:30:08;22.20;74.60
6865;DHT22;3471;49.678;8.388;2022-08-11T00:32:36;22.10;75.50
6865;DHT22;3471;49.678;8.388;2022-08-11T00:35:04;22.00;75.30
6865;DHT22;3471;49.678;8.388;2022-08-11T00:37:32;22.00;75.20
6865;DHT22;3471;49.678;8.388;2022-08-11T00:39:59;21.90;75.30
6865;DHT22;3471;49.678;8.388;2022-08-11T00:45:28;21.80;76.30
6865;DHT22;3471;49.678;8.388;2022-08-11T00:48:28;21.70;78.40
6865;DHT22;3471;49.678;8.388;2022-08-11T00:53:37;21.60;76.70
6865;DHT22;3471;49.678;8.388;2022-08-11T00:56:31;21.60;77.90
6865;DHT22;3471;49.678;8.388;2022-08-11T00:59:18;21.60;76.80
6865;DHT22;3471;49.678;8.388;2022-08-11T01:04:53;21.50;77.40
6865;DHT22;3471;49.678;8.388;2022-08-11T01:10:46;21.60;77.20
6865;DHT22;3471;49.678;8.388;2022-08-11T01:19:32;21.60;77.30
6865;DHT22;3471;49.678;8.388;2022-08-11T01:30:34;21.60;77.50
6865;DHT22;3471;49.678;8.388;2022-08-11T01:36:26;21.50;77.20
6865;DHT22;3471;49.678;8.388;2022-08-11T01:39:23;21.50;77.10
6865;DHT22;3471;49.678;8.388;2022-08-11T01:48:33;21.40;77.70
6865;DHT22;3471;49.678;8.388;2022-08-11T01:51:02;21.40;77.80
6865;DHT22;3471;49.678;8.388;2022-08-11T01:53:35;21.30;78.10
6865;DHT22;3471;49.678;8.388;2022-08-11T01:59:16;21.30;78.10
6865;DHT22;3471;49.678;8.388;2022-08-11T02:07:09;21.20;78.90
6865;DHT22;3471;49.678;8.388;2022-08-11T02:09:52;21.20;78.60
6865;DHT22;3471;49.678;8.388;2022-08-11T02:18:31;21.10;79.00
6865;DHT22;3471;49.678;8.388;2022-08-11T02:21:37;21.10;79.00
6865;DHT22;3471;49.678;8.388;2022-08-11T02:24:29;21.00;79.30
6865;DHT22;3471;49.678;8.388;2022-08-11T02:27:04;21.00;79.30
6865;DHT22;3471;49.678;8.388;2022-08-11T02:29:58;21.00;79.80
6865;DHT22;3471;49.678;8.388;2022-08-11T02:32:40;20.90;79.80
6865;DHT22;3471;49.678;8.388;2022-08-11T02:38:27;20.80;82.10
6865;DHT22;3471;49.678;8.388;2022-08-11T02:50:18;20.70;82.70
6865;DHT22;3471;49.678;8.388;2022-08-11T02:55:34;20.60;82.00
6865;DHT22;3471;49.678;8.388;2022-08-11T03:00:59;20.50;82.50
6865;DHT22;3471;49.678;8.388;2022-08-11T03:03:51;20.40;82.30
6865;DHT22;3471;49.678;8.388;2022-08-11T03:06:30;20.40;82.20
6865;DHT22;3471;49.678;8.388;2022-08-11T03:09:08;20.40;81.90
6865;DHT22;3471;49.678;8.388;2022-08-11T03:11:59;20.30;82.30
6865;DHT22;3471;49.678;8.388;2022-08-11T03:15:01;20.30;82.20
6865;DHT22;3471;49.678;8.388;2022-08-11T03:18:03;20.30;82.10
6865;DHT22;3471;49.678;8.388;2022-08-11T03:21:14;20.30;82.50
6865;DHT22;3471;49.678;8.388;2022-08-11T03:24:19;20.30;82.30
6865;DHT22;3471;49.678;8.388;2022-08-11T03:29:22;20.20;82.20
6865;DHT22;3471;49.678;8.388;2022-08-11T03:32:00;20.20;82.20
6865;DHT22;3471;49.678;8.388;2022-08-11T03:34:29;20.20;82.80
6865;DHT22;3471;49.678;8.388;2022-08-11T03:40:12;20.10;82.30
6865;DHT22;3471;49.678;8.388;2022-08-11T03:42:53;20.10;82.70
6865;DHT22;3471;49.678;8.388;2022-08-11T03:46:03;20.00;82.60
6865;DHT22;3471;49.678;8.388;2022-08-11T03:52:20;20.00;83.70
6865;DHT22;3471;49.678;8.388;2022-08-11T04:17:37;19.90;83.00
6865;DHT22;3471;49.678;8.388;2022-08-11T04:20:18;19.90;83.00
6865;DHT22;3471;49.678;8.388;2022-08-11T04:31:44;19.90;83.00
6865;DHT22;3471;49.678;8.388;2022-08-11T04:34:40;19.90;83.10
6865;DHT22;3471;49.678;8.388;2022-08-11T04:45:48;19.90;83.10
6865;DHT22;3471;49.678;8.388;2022-08-11T04:54:20;20.00;83.70
6865;DHT22;3471;49.678;8.388;2022-08-11T04:57:50;20.00;83.10
6865;DHT22;3471;49.678;8.388;2022-08-11T05:04:09;20.10;83.20
6865;DHT22;3471;49.678;8.388;2022-08-11T05:10:09;20.20;82.60
6865;DHT22;3471;49.678;8.388;2022-08-11T05:12:52;20.30;82.80
6865;DHT22;3471;49.678;8.388;2022-08-11T05:15:34;20.30;82.40
6865;DHT22;3471;49.678;8.388;2022-08-11T05:18:25;20.40;82.40
6865;DHT22;3471;49.678;8.388;2022-08-11T05:21:12;20.50;82.40
6865;DHT22;3471;49.678;8.388;2022-08-11T05:24:04;20.60;82.20
6865;DHT22;3471;49.678;8.388;2022-08-11T05:26:51;20.60;82.50
6865;DHT22;3471;49.678;8.388;2022-08-11T05:29:47;20.70;82.30
6865;DHT22;3471;49.678;8.388;2022-08-11T05:32:41;20.80;82.40
6865;DHT22;3471;49.678;8.388;2022-08-11T05:35:31;20.80;82.50
6865;DHT22;3471;49.678;8.388;2022-08-11T05:38:02;20.90;82.30
6865;DHT22;3471;49.678;8.388;2022-08-11T05:40:48;21.00;81.80
6865;DHT22;3471;49.678;8.388;2022-08-11T05:43:34;21.10;81.40
6865;DHT22;3471;49.678;8.388;2022-08-11T05:46:23;21.20;82.80
6865;DHT22;3471;49.678;8.388;2022-08-11T05:49:09;21.30;82.40
6865;DHT22;3471;49.678;8.388;2022-08-11T05:51:54;21.50;81.70
6865;DHT22;3471;49.678;8.388;2022-08-11T05:54:40;21.60;81.80
6865;DHT22;3471;49.678;8.388;2022-08-11T05:57:35;21.80;81.30
6865;DHT22;3471;49.678;8.388;2022-08-11T06:00:06;21.90;81.30
6865;DHT22;3471;49.678;8.388;2022-08-11T06:02:43;22.00;81.40
6865;DHT22;3471;49.678;8.388;2022-08-11T06:05:11;22.10;80.10
6865;DHT22;3471;49.678;8.388;2022-08-11T06:07:37;22.20;80.60
6865;DHT22;3471;49.678;8.388;2022-08-11T06:10:04;22.30;79.90
6865;DHT22;3471;49.678;8.388;2022-08-11T06:12:32;22.40;79.90
6865;DHT22;3471;49.678;8.388;2022-08-11T06:15:06;22.50;79.40
6865;DHT22;3471;49.678;8.388;2022-08-11T06:17:42;22.50;80.20
6865;DHT22;3471;49.678;8.388;2022-08-11T06:20:09;22.60;79.20
6865;DHT22;3471;49.678;8.388;2022-08-11T06:22:37;22.70;80.30
6865;DHT22;3471;49.678;8.388;2022-08-11T06:25:06;22.70;79.80
6865;DHT22;3471;49.678;8.388;2022-08-11T06:27:35;22.80;79.90
6865;DHT22;3471;49.678;8.388;2022-08-11T06:30:02;23.00;79.70
6865;DHT22;3471;49.678;8.388;2022-08-11T06:32:40;23.10;79.30
6865;DHT22;3471;49.678;8.388;2022-08-11T06:35:21;23.10;78.50
6865;DHT22;3471;49.678;8.388;2022-08-11T06:40:48;23.40;79.30
6865;DHT22;3471;49.678;8.388;2022-08-11T06:46:27;23.60;77.50
6865;DHT22;3471;49.678;8.388;2022-08-11T06:48:54;23.70;79.20
6865;DHT22;3471;49.678;8.388;2022-08-11T06:51:20;23.90;79.00
6865;DHT22;3471;49.678;8.388;2022-08-11T06:53:54;24.00;77.70
6865;DHT22;3471;49.678;8.388;2022-08-11T06:56:27;24.20;78.30
6865;DHT22;3471;49.678;8.388;2022-08-11T06:59:14;24.30;78.10
6865;DHT22;3471;49.678;8.388;2022-08-11T07:02:15;24.50;77.50
6865;DHT22;3471;49.678;8.388;2022-08-11T07:05:01;24.60;77.80
6865;DHT22;3471;49.678;8.388;2022-08-11T07:07:36;24.70;76.70
6865;DHT22;3471;49.678;8.388;2022-08-11T07:13:35;25.00;76.70
6865;DHT22;3471;49.678;8.388;2022-08-11T07:16:28;25.10;76.90
6865;DHT22;3471;49.678;8.388;2022-08-11T07:19:05;25.30;78.50
6865;DHT22;3471;49.678;8.388;2022-08-11T07:21:50;25.40;76.40
6865;DHT22;3471;49.678;8.388;2022-08-11T07:24:42;25.60;75.80
6865;DHT22;3471;49.678;8.388;2022-08-11T07:27:34;25.70;75.20
6865;DHT22;3471;49.678;8.388;2022-08-11T07:30:19;25.90;75.70
6865;DHT22;3471;49.678;8.388;2022-08-11T07:32:58;26.00;74.90
6865;DHT22;3471;49.678;8.388;2022-08-11T07:35:34;26.10;74.60
6865;DHT22;3471;49.678;8.388;2022-08-11T07:38:06;26.20;75.20
6865;DHT22;3471;49.678;8.388;2022-08-11T07:40:33;26.30;75.00
6865;DHT22;3471;49.678;8.388;2022-08-11T07:42:59;26.40;74.40
6865;DHT22;3471;49.678;8.388;2022-08-11T07:45:26;26.50;75.20
6865;DHT22;3471;49.678;8.388;2022-08-11T07:48:12;26.60;75.30
6865;DHT22;3471;49.678;8.388;2022-08-11T07:50:57;26.80;76.20
6865;DHT22;3471;49.678;8.388;2022-08-11T07:53:42;26.90;74.90
6865;DHT22;3471;49.678;8.388;2022-08-11T07:56:09;27.10;75.60
6865;DHT22;3471;49.678;8.388;2022-08-11T07:58:36;27.20;76.60
6865;DHT22;3471;49.678;8.388;2022-08-11T08:01:23;27.40;75.20
6865;DHT22;3471;49.678;8.388;2022-08-11T08:04:11;27.50;74.60
6865;DHT22;3471;49.678;8.388;2022-08-11T08:06:56;27.70;76.70
6865;DHT22;3471;49.678;8.388;2022-08-11T08:09:42;27.80;71.40
6865;DHT22;3471;49.678;8.388;2022-08-11T08:12:27;27.90;73.40
6865;DHT22;3471;49.678;8.388;2022-08-11T08:15:14;28.00;74.30
6865;DHT22;3471;49.678;8.388;2022-08-11T08:18:00;28.00;72.60
6865;DHT22;3471;49.678;8.388;2022-08-11T08:20:33;28.20;73.40
6865;DHT22;3471;49.678;8.388;2022-08-11T08:23:01;28.40;72.50
6865;DHT22;3471;49.678;8.388;2022-08-11T08:25:29;28.50;73.50
6865;DHT22;3471;49.678;8.388;2022-08-11T08:27:56;28.70;72.50
6865;DHT22;3471;49.678;8.388;2022-08-11T08:30:25;28.80;69.80
6865;DHT22;3471;49.678;8.388;2022-08-11T08:33:18;28.90;73.40
6865;DHT22;3471;49.678;8.388;2022-08-11T08:35:45;29.10;69.90
6865;DHT22;3471;49.678;8.388;2022-08-11T08:38:13;29.20;70.40
6865;DHT22;3471;49.678;8.388;2022-08-11T08:40:41;29.30;70.80
6865;DHT22;3471;49.678;8.388;2022-08-11T08:43:14;29.40;69.90
6865;DHT22;3471;49.678;8.388;2022-08-11T08:45:42;29.50;71.20
6865;DHT22;3471;49.678;8.388;2022-08-11T08:48:14;29.50;70.30
6865;DHT22;3471;49.678;8.388;2022-08-11T08:50:51;29.50;68.90
6865;DHT22;3471;49.678;8.388;2022-08-11T08:53:39;29.60;68.90
6865;DHT22;3471;49.678;8.388;2022-08-11T08:56:07;29.60;68.10
6865;DHT22;3471;49.678;8.388;2022-08-11T08:58:35;29.70;68.10
6865;DHT22;3471;49.678;8.388;2022-08-11T09:01:02;29.80;67.10
6865;DHT22;3471;49.678;8.388;2022-08-11T09:03:29;29.80;68.10
6865;DHT22;3471;49.678;8.388;2022-08-11T09:05:55;29.80;68.00
6865;DHT22;3471;49.678;8.388;2022-08-11T09:08:21;29.80;68.40
6865;DHT22;3471;49.678;8.388;2022-08-11T09:10:49;29.90;67.90
6865;DHT22;3471;49.678;8.388;2022-08-11T09:13:35;29.90;68.00
6865;DHT22;3471;49.678;8.388;2022-08-11T09:16:04;30.00;67.20
6865;DHT22;3471;49.678;8.388;2022-08-11T09:18:31;30.00;67.80
6865;DHT22;3471;49.678;8.388;2022-08-11T09:20:57;30.00;67.20
6865;DHT22;3471;49.678;8.388;2022-08-11T09:23:23;30.10;67.30
6865;DHT22;3471;49.678;8.388;2022-08-11T09:26:09;30.10;67.80
6865;DHT22;3471;49.678;8.388;2022-08-11T09:28:54;30.20;66.40
6865;DHT22;3471;49.678;8.388;2022-08-11T09:31:20;30.20;66.40
6865;DHT22;3471;49.678;8.388;2022-08-11T09:33:50;30.20;66.40
6865;DHT22;3471;49.678;8.388;2022-08-11T09:36:17;30.20;65.20
6865;DHT22;3471;49.678;8.388;2022-08-11T09:39:04;30.10;66.40
6865;DHT22;3471;49.678;8.388;2022-08-11T09:41:49;29.90;67.40
6865;DHT22;3471;49.678;8.388;2022-08-11T09:44:15;29.80;67.30
6865;DHT22;3471;49.678;8.388;2022-08-11T09:47:02;29.90;67.40
6865;DHT22;3471;49.678;8.388;2022-08-11T09:49:29;30.00;67.00
6865;DHT22;3471;49.678;8.388;2022-08-11T09:51:56;30.30;66.90
6865;DHT22;3471;49.678;8.388;2022-08-11T09:54:23;30.30;64.90
6865;DHT22;3471;49.678;8.388;2022-08-11T09:56:52;30.50;64.80
6865;DHT22;3471;49.678;8.388;2022-08-11T09:59:36;30.50;65.00
6865;DHT22;3471;49.678;8.388;2022-08-11T10:02:05;30.50;65.30
6865;DHT22;3471;49.678;8.388;2022-08-11T10:04:41;30.60;65.10
6865;DHT22;3471;49.678;8.388;2022-08-11T10:07:07;30.70;65.60
6865;DHT22;3471;49.678;8.388;2022-08-11T10:09:49;30.80;67.40
6865;DHT22;3471;49.678;8.388;2022-08-11T10:12:37;30.80;66.00
6865;DHT22;3471;49.678;8.388;2022-08-11T10:15:09;30.90;64.00
6865;DHT22;3471;49.678;8.388;2022-08-11T10:18:16;30.90;65.40
6865;DHT22;3471;49.678;8.388;2022-08-11T10:21:06;30.70;63.20
6865;DHT22;3471;49.678;8.388;2022-08-11T10:23:35;30.70;62.50
6865;DHT22;3471;49.678;8.388;2022-08-11T10:26:20;30.60;62.20
6865;DHT22;3471;49.678;8.388;2022-08-11T10:29:06;30.70;62.30
6865;DHT22;3471;49.678;8.388;2022-08-11T10:31:54;30.90;62.90
6865;DHT22;3471;49.678;8.388;2022-08-11T10:34:40;31.00;61.40
6865;DHT22;3471;49.678;8.388;2022-08-11T10:37:08;31.00;61.60
6865;DHT22;3471;49.678;8.388;2022-08-11T10:39:34;31.00;62.50
6865;DHT22;3471;49.678;8.388;2022-08-11T10:42:02;30.90;63.40
6865;DHT22;3471;49.678;8.388;2022-08-11T10:44:51;31.10;61.90
6865;DHT22;3471;49.678;8.388;2022-08-11T10:47:18;31.30;62.30
6865;DHT22;3471;49.678;8.388;2022-08-11T10:50:01;31.30;60.70
6865;DHT22;3471;49.678;8.388;2022-08-11T10:52:48;31.30;61.90
6865;DHT22;3471;49.678;8.388;2022-08-11T10:55:37;31.20;61.20
6865;DHT22;3471;49.678;8.388;2022-08-11T10:58:22;31.40;61.50
6865;DHT22;3471;49.678;8.388;2022-08-11T11:01:07;31.60;60.80
6865;DHT22;3471;49.678;8.388;2022-08-11T11:03:35;31.80;60.70
6865;DHT22;3471;49.678;8.388;2022-08-11T11:08:31;31.90;60.70
6865;DHT22;3471;49.678;8.388;2022-08-11T11:11:17;31.90;60.80
6865;DHT22;3471;49.678;8.388;2022-08-11T11:13:48;32.00;60.50
6865;DHT22;3471;49.678;8.388;2022-08-11T11:16:34;32.00;58.90
6865;DHT22;3471;49.678;8.388;2022-08-11T11:19:21;32.10;59.70
6865;DHT22;3471;49.678;8.388;2022-08-11T11:21:52;32.40;61.30
6865;DHT22;3471;49.678;8.388;2022-08-11T11:24:41;32.70;61.00
6865;DHT22;3471;49.678;8.388;2022-08-11T11:27:32;32.80;61.40
6865;DHT22;3471;49.678;8.388;2022-08-11T11:30:05;33.10;61.40
6865;DHT22;3471;49.678;8.388;2022-08-11T11:37:45;33.20;58.20
6865;DHT22;3471;49.678;8.388;2022-08-11T11:40:15;33.10;59.60
6865;DHT22;3471;49.678;8.388;2022-08-11T11:42:46;33.10;59.20
6865;DHT22;3471;49.678;8.388;2022-08-11T11:45:17;33.40;59.60
6865;DHT22;3471;49.678;8.388;2022-08-11T11:47:44;33.60;59.50
6865;DHT22;3471;49.678;8.388;2022-08-11T11:50:10;33.60;59.30
6865;DHT22;3471;49.678;8.388;2022-08-11T11:52:38;33.80;59.00
6865;DHT22;3471;49.678;8.388;2022-08-11T11:55:06;34.20;59.60
6865;DHT22;3471;49.678;8.388;2022-08-11T11:57:32;34.30;58.40
6865;DHT22;3471;49.678;8.388;2022-08-11T12:00:18;34.30;58.40
6865;DHT22;3471;49.678;8.388;2022-08-11T12:03:08;34.40;57.90
6865;DHT22;3471;49.678;8.388;2022-08-11T12:05:36;34.40;56.80
6865;DHT22;3471;49.678;8.388;2022-08-11T12:08:03;34.50;56.10
6865;DHT22;3471;49.678;8.388;2022-08-11T12:13:09;34.50;58.30
6865;DHT22;3471;49.678;8.388;2022-08-11T12:15:54;34.60;56.90
6865;DHT22;3471;49.678;8.388;2022-08-11T12:18:20;34.60;57.90
6865;DHT22;3471;49.678;8.388;2022-08-11T12:20:46;34.80;57.50
6865;DHT22;3471;49.678;8.388;2022-08-11T12:23:12;35.00;57.70
6865;DHT22;3471;49.678;8.388;2022-08-11T12:25:58;35.30;57.60
6865;DHT22;3471;49.678;8.388;2022-08-11T12:28:44;35.70;58.30
6865;DHT22;3471;49.678;8.388;2022-08-11T12:31:10;35.90;56.50
6865;DHT22;3471;49.678;8.388;2022-08-11T12:33:37;36.20;55.30
6865;DHT22;3471;49.678;8.388;2022-08-11T12:36:07;36.50;56.60
6865;DHT22;3471;49.678;8.388;2022-08-11T12:38:34;36.80;55.30
6865;DHT22;3471;49.678;8.388;2022-08-11T12:41:01;37.00;53.70
6865;DHT22;3471;49.678;8.388;2022-08-11T12:43:46;37.10;54.90
6865;DHT22;3471;49.678;8.388;2022-08-11T12:46:33;37.10;54.30
6865;DHT22;3471;49.678;8.388;2022-08-11T12:49:06;37.00;55.70
6865;DHT22;3471;49.678;8.388;2022-08-11T12:51:54;37.00;55.30
6865;DHT22;3471;49.678;8.388;2022-08-11T12:57:14;37.30;55.00
6865;DHT22;3471;49.678;8.388;2022-08-11T13:00:00;37.20;53.30
6865;DHT22;3471;49.678;8.388;2022-08-11T13:02:46;37.10;53.80
6865;DHT22;3471;49.678;8.388;2022-08-11T13:05:31;36.80;53.90
6865;DHT22;3471;49.678;8.388;2022-08-11T13:07:59;36.50;54.00
6865;DHT22;3471;49.678;8.388;2022-08-11T13:10:26;36.60;55.30
6865;DHT22;3471;49.678;8.388;2022-08-11T13:13:12;36.80;53.60
6865;DHT22;3471;49.678;8.388;2022-08-11T13:15:39;37.00;55.50
6865;DHT22;3471;49.678;8.388;2022-08-11T13:18:05;37.50;53.70
6865;DHT22;3471;49.678;8.388;2022-08-11T13:20:34;37.70;53.50
6865;DHT22;3471;49.678;8.388;2022-08-11T13:23:01;37.90;52.00
6865;DHT22;3471;49.678;8.388;2022-08-11T13:25:30;38.10;51.00
6865;DHT22;3471;49.678;8.388;2022-08-11T13:27:57;38.20;52.40
6865;DHT22;3471;49.678;8.388;2022-08-11T13:30:29;38.60;52.90
6865;DHT22;3471;49.678;8.388;2022-08-11T13:33:15;38.80;51.90
6865;DHT22;3471;49.678;8.388;2022-08-11T13:35:49;39.10;51.40
6865;DHT22;3471;49.678;8.388;2022-08-11T13:38:18;39.20;49.70
6865;DHT22;3471;49.678;8.388;2022-08-11T13:40:45;39.30;50.60
6865;DHT22;3471;49.678;8.388;2022-08-11T13:43:13;39.50;50.00
6865;DHT22;3471;49.678;8.388;2022-08-11T13:45:41;39.50;50.80
6865;DHT22;3471;49.678;8.388;2022-08-11T13:48:08;39.80;50.40
6865;DHT22;3471;49.678;8.388;2022-08-11T13:50:35;40.20;50.00
6865;DHT22;3471;49.678;8.388;2022-08-11T13:53:22;40.30;49.10
6865;DHT22;3471;49.678;8.388;2022-08-11T13:55:49;40.50;49.30
6865;DHT22;3471;49.678;8.388;2022-08-11T13:58:15;40.80;50.30
6865;DHT22;3471;49.678;8.388;2022-08-11T14:00:47;40.90;48.00
6865;DHT22;3471;49.678;8.388;2022-08-11T14:03:13;40.90;49.30
6865;DHT22;3471;49.678;8.388;2022-08-11T14:05:45;41.00;48.80
6865;DHT22;3471;49.678;8.388;2022-08-11T14:08:15;41.30;48.80
6865;DHT22;3471;49.678;8.388;2022-08-11T14:10:43;41.50;49.40
6865;DHT22;3471;49.678;8.388;2022-08-11T14:13:15;41.20;46.90
6865;DHT22;3471;49.678;8.388;2022-08-11T14:16:04;41.00;45.90
6865;DHT22;3471;49.678;8.388;2022-08-11T14:18:32;40.90;48.20
6865;DHT22;3471;49.678;8.388;2022-08-11T14:21:00;40.80;46.80
6865;DHT22;3471;49.678;8.388;2022-08-11T14:23:49;40.90;47.20
6865;DHT22;3471;49.678;8.388;2022-08-11T14:26:17;41.00;46.70
6865;DHT22;3471;49.678;8.388;2022-08-11T14:29:11;40.90;46.40
6865;DHT22;3471;49.678;8.388;2022-08-11T14:31:43;41.00;47.20
6865;DHT22;3471;49.678;8.388;2022-08-11T14:34:11;41.10;46.30
6865;DHT22;3471;49.678;8.388;2022-08-11T14:36:49;41.00;47.70
6865;DHT22;3471;49.678;8.388;2022-08-11T14:39:18;40.60;47.10
6865;DHT22;3471;49.678;8.388;2022-08-11T14:41:51;40.10;47.60
6865;DHT22;3471;49.678;8.388;2022-08-11T14:44:37;40.10;46.40
6865;DHT22;3471;49.678;8.388;2022-08-11T14:47:23;40.30;47.40
6865;DHT22;3471;49.678;8.388;2022-08-11T14:49:50;40.30;46.70
6865;DHT22;3471;49.678;8.388;2022-08-11T14:52:18;40.50;45.80
6865;DHT22;3471;49.678;8.388;2022-08-11T14:54:48;40.80;47.30
6865;DHT22;3471;49.678;8.388;2022-08-11T14:57:39;41.00;44.30
6865;DHT22;3471;49.678;8.388;2022-08-11T15:00:08;41.20;45.50
6865;DHT22;3471;49.678;8.388;2022-08-11T15:02:38;41.20;45.00
6865;DHT22;3471;49.678;8.388;2022-08-11T15:05:23;41.40;45.20
6865;DHT22;3471;49.678;8.388;2022-08-11T15:07:51;41.50;46.70
6865;DHT22;3471;49.678;8.388;2022-08-11T15:10:18;41.70;46.70
6865;DHT22;3471;49.678;8.388;2022-08-11T15:12:45;41.60;44.90
6865;DHT22;3471;49.678;8.388;2022-08-11T15:15:12;41.60;45.00
6865;DHT22;3471;49.678;8.388;2022-08-11T15:17:59;41.40;46.70
6865;DHT22;3471;49.678;8.388;2022-08-11T15:20:27;41.20;44.90
6865;DHT22;3471;49.678;8.388;2022-08-11T15:23:22;40.90;46.20
6865;DHT22;3471;49.678;8.388;2022-08-11T15:26:14;40.90;45.60
6865;DHT22;3471;49.678;8.388;2022-08-11T15:28:51;40.90;44.60
6865;DHT22;3471;49.678;8.388;2022-08-11T15:31:36;40.90;44.80
6865;DHT22;3471;49.678;8.388;2022-08-11T15:34:24;41.00;45.20
6865;DHT22;3471;49.678;8.388;2022-08-11T15:37:12;41.20;45.40
6865;DHT22;3471;49.678;8.388;2022-08-11T15:40:18;41.40;44.90
6865;DHT22;3471;49.678;8.388;2022-08-11T15:43:44;41.70;45.20
6865;DHT22;3471;49.678;8.388;2022-08-11T15:46:38;41.50;45.90
6865;DHT22;3471;49.678;8.388;2022-08-11T15:49:14;41.20;44.70
6865;DHT22;3471;49.678;8.388;2022-08-11T15:51:48;41.10;45.30
6865;DHT22;3471;49.678;8.388;2022-08-11T15:54:22;40.90;45.60
6865;DHT22;3471;49.678;8.388;2022-08-11T15:56:49;40.70;43.30
6865;DHT22;3471;49.678;8.388;2022-08-11T15:59:18;40.70;44.10
6865;DHT22;3471;49.678;8.388;2022-08-11T16:02:04;40.50;45.50
6865;DHT22;3471;49.678;8.388;2022-08-11T16:04:49;40.50;42.90
6865;DHT22;3471;49.678;8.388;2022-08-11T16:07:18;40.40;44.30
6865;DHT22;3471;49.678;8.388;2022-08-11T16:10:08;40.20;46.20
6865;DHT22;3471;49.678;8.388;2022-08-11T16:12:39;40.20;45.50
6865;DHT22;3471;49.678;8.388;2022-08-11T16:15:08;40.40;44.60
6865;DHT22;3471;49.678;8.388;2022-08-11T16:17:58;40.20;44.20
6865;DHT22;3471;49.678;8.388;2022-08-11T16:20:26;39.90;46.10
6865;DHT22;3471;49.678;8.388;2022-08-11T16:23:02;39.50;46.60
6865;DHT22;3471;49.678;8.388;2022-08-11T16:25:29;39.20;45.00
6865;DHT22;3471;49.678;8.388;2022-08-11T16:27:59;39.20;45.30
6865;DHT22;3471;49.678;8.388;2022-08-11T16:30:38;39.00;46.60
6865;DHT22;3471;49.678;8.388;2022-08-11T16:33:05;38.70;47.40
6865;DHT22;3471;49.678;8.388;2022-08-11T16:35:33;38.40;47.20
6865;DHT22;3471;49.678;8.388;2022-08-11T16:38:21;37.70;47.10
6865;DHT22;3471;49.678;8.388;2022-08-11T16:41:05;37.30;45.30
6865;DHT22;3471;49.678;8.388;2022-08-11T16:43:34;36.90;48.50
6865;DHT22;3471;49.678;8.388;2022-08-11T16:46:21;36.40;48.30
6865;DHT22;3471;49.678;8.388;2022-08-11T16:49:16;36.10;49.50
6865;DHT22;3471;49.678;8.388;2022-08-11T16:51:43;35.60;50.60
6865;DHT22;3471;49.678;8.388;2022-08-11T16:54:09;35.40;50.00
6865;DHT22;3471;49.678;8.388;2022-08-11T16:56:45;35.00;47.90
6865;DHT22;3471;49.678;8.388;2022-08-11T16:59:32;34.80;48.60
6865;DHT22;3471;49.678;8.388;2022-08-11T17:02:12;34.60;47.30
6865;DHT22;3471;49.678;8.388;2022-08-11T17:05:12;34.30;50.60
6865;DHT22;3471;49.678;8.388;2022-08-11T17:08:00;34.00;49.20
6865;DHT22;3471;49.678;8.388;2022-08-11T17:11:00;33.70;50.60
6865;DHT22;3471;49.678;8.388;2022-08-11T17:16:17;33.20;50.40
6865;DHT22;3471;49.678;8.388;2022-08-11T17:18:53;33.10;49.70
6865;DHT22;3471;49.678;8.388;2022-08-11T17:23:54;32.80;51.50
6865;DHT22;3471;49.678;8.388;2022-08-11T17:26:41;32.60;53.90
6865;DHT22;3471;49.678;8.388;2022-08-11T17:31:54;32.40;53.60
6865;DHT22;3471;49.678;8.388;2022-08-11T17:34:42;32.40;48.60
6865;DHT22;3471;49.678;8.388;2022-08-11T17:37:27;32.30;49.40
6865;DHT22;3471;49.678;8.388;2022-08-11T17:39:55;32.20;48.40
6865;DHT22;3471;49.678;8.388;2022-08-11T17:42:22;32.10;48.80
6865;DHT22;3471;49.678;8.388;2022-08-11T17:45:09;32.00;49.60
6865;DHT22;3471;49.678;8.388;2022-08-11T17:47:55;31.90;50.20
6865;DHT22;3471;49.678;8.388;2022-08-11T17:50:40;31.80;53.90
6865;DHT22;3471;49.678;8.388;2022-08-11T17:53:07;31.60;53.70
6865;DHT22;3471;49.678;8.388;2022-08-11T17:55:52;31.60;54.40
6865;DHT22;3471;49.678;8.388;2022-08-11T17:58:38;31.50;55.70
6865;DHT22;3471;49.678;8.388;2022-08-11T18:01:23;31.40;55.20
6865;DHT22;3471;49.678;8.388;2022-08-11T18:03:50;31.30;54.30
6865;DHT22;3471;49.678;8.388;2022-08-11T18:06:17;31.30;55.00
6865;DHT22;3471;49.678;8.388;2022-08-11T18:08:45;31.20;54.60
6865;DHT22;3471;49.678;8.388;2022-08-11T18:11:31;31.10;54.60
6865;DHT22;3471;49.678;8.388;2022-08-11T18:14:17;31.10;52.80
6865;DHT22;3471;49.678;8.388;2022-08-11T18:17:02;31.00;54.00
6865;DHT22;3471;49.678;8.388;2022-08-11T18:19:46;30.90;54.50
6865;DHT22;3471;49.678;8.388;2022-08-11T18:22:35;30.80;54.10
6865;DHT22;3471;49.678;8.388;2022-08-11T18:25:23;30.80;53.30
6865;DHT22;3471;49.678;8.388;2022-08-11T18:28:11;30.70;53.20
6865;DHT22;3471;49.678;8.388;2022-08-11T18:30:59;30.60;51.80
6865;DHT22;3471;49.678;8.388;2022-08-11T18:33:50;30.50;52.50
6865;DHT22;3471;49.678;8.388;2022-08-11T18:36:46;30.40;51.50
6865;DHT22;3471;49.678;8.388;2022-08-11T18:39:35;30.20;51.90
6865;DHT22;3471;49.678;8.388;2022-08-11T18:42:22;30.10;52.00
6865;DHT22;3471;49.678;8.388;2022-08-11T18:45:12;30.00;51.90
6865;DHT22;3471;49.678;8.388;2022-08-11T18:48:03;29.90;52.20
6865;DHT22;3471;49.678;8.388;2022-08-11T18:50:52;29.70;52.50
6865;DHT22;3471;49.678;8.388;2022-08-11T18:53:40;29.60;51.60
6865;DHT22;3471;49.678;8.388;2022-08-11T18:56:26;29.50;52.30
6865;DHT22;3471;49.678;8.388;2022-08-11T18:59:14;29.40;54.00
6865;DHT22;3471;49.678;8.388;2022-08-11T19:02:00;29.30;52.50
6865;DHT22;3471;49.678;8.388;2022-08-11T19:04:46;29.20;52.40
6865;DHT22;3471;49.678;8.388;2022-08-11T19:07:31;29.10;53.00
6865;DHT22;3471;49.678;8.388;2022-08-11T19:10:18;29.00;53.50
6865;DHT22;3471;49.678;8.388;2022-08-11T19:13:05;29.00;52.80
6865;DHT22;3471;49.678;8.388;2022-08-11T19:15:52;28.90;52.90
6865;DHT22;3471;49.678;8.388;2022-08-11T19:18:37;28.80;51.90
6865;DHT22;3471;49.678;8.388;2022-08-11T19:21:22;28.70;52.50
6865;DHT22;3471;49.678;8.388;2022-08-11T19:24:08;28.70;52.80
6865;DHT22;3471;49.678;8.388;2022-08-11T19:26:53;28.60;54.60
6865;DHT22;3471;49.678;8.388;2022-08-11T19:29:39;28.50;55.10
6865;DHT22;3471;49.678;8.388;2022-08-11T19:32:24;28.50;54.40
6865;DHT22;3471;49.678;8.388;2022-08-11T19:35:10;28.30;53.70
6865;DHT22;3471;49.678;8.388;2022-08-11T19:37:55;28.20;54.10
6865;DHT22;3471;49.678;8.388;2022-08-11T19:40:41;28.00;55.20
6865;DHT22;3471;49.678;8.388;2022-08-11T19:43:26;28.00;54.60
6865;DHT22;3471;49.678;8.388;2022-08-11T19:46:12;27.80;54.80
6865;DHT22;3471;49.678;8.388;2022-08-11T19:48:58;27.70;55.30
6865;DHT22;3471;49.678;8.388;2022-08-11T19:51:43;27.60;56.60
6865;DHT22;3471;49.678;8.388;2022-08-11T19:54:31;27.40;57.90